createdAt,value
2018-05-15T00:01:53.958Z,101115.73
2018-05-15T00:04:21.396Z,101119.61
2018-05-15T00:06:48.916Z,101119.78
2018-05-15T00:09:15.560Z,101128.30
2018-05-15T00:11:42.364Z,101122.71
2018-05-15T00:14:10.817Z,101131.35
2018-05-15T00:16:38.294Z,101130.78
2018-05-15T00:19:05.975Z,101125.77
2018-05-15T00:21:33.026Z,101130.38
2018-05-15T00:23:59.785Z,101127.67
2018-05-15T00:26:26.772Z,101129.03
2018-05-15T00:28:53.457Z,101133.92
2018-05-15T00:31:20.180Z,101126.44
2018-05-15T00:33:47.650Z,101131.43
2018-05-15T00:36:14.301Z,101133.98
2018-05-15T00:38:41.109Z,101132.80
2018-05-15T00:41:08.516Z,101127.33
2018-05-15T00:43:35.286Z,101131.94
2018-05-15T00:46:01.946Z,101129.30
2018-05-15T00:48:29.320Z,101131.44
2018-05-15T00:50:56.218Z,101126.80
2018-05-15T00:53:22.823Z,101129.52
2018-05-15T00:55:49.476Z,101134.39
2018-05-15T00:58:16.138Z,101133.59
2018-05-15T01:00:42.779Z,101136.36
2018-05-15T01:03:11.305Z,101138.27
2018-05-15T01:05:38.345Z,101138.17
2018-05-15T01:08:04.981Z,101139.22
2018-05-15T01:10:31.814Z,101139.70
2018-05-15T01:13:00.169Z,101139.67
2018-05-15T01:15:27.569Z,101143.41
2018-05-15T01:17:54.278Z,101145.06
2018-05-15T01:20:20.901Z,101143.16
2018-05-15T01:22:48.793Z,101142.36
2018-05-15T01:25:16.805Z,101140.53
2018-05-15T01:27:43.553Z,101144.31
2018-05-15T01:30:10.244Z,101143.17
2018-05-15T01:32:37.746Z,101137.82
2018-05-15T01:35:04.518Z,101140.48
2018-05-15T01:37:31.371Z,101146.02
2018-05-15T01:39:59.001Z,101140.15
2018-05-15T01:42:25.642Z,101143.25
2018-05-15T01:44:52.331Z,101149.20
2018-05-15T01:47:20.539Z,101144.92
2018-05-15T01:49:47.933Z,101146.84
2018-05-15T01:52:14.600Z,101145.42
2018-05-15T01:54:42.097Z,101150.38
2018-05-15T01:57:08.740Z,101144.42
2018-05-15T01:59:36.180Z,101146.98
2018-05-15T02:02:03.639Z,101151.17
2018-05-15T02:04:30.308Z,101149.52
2018-05-15T02:06:56.931Z,101147.56
2018-05-15T02:09:23.690Z,101150.07
2018-05-15T02:11:50.571Z,101156.52
2018-05-15T02:14:18.338Z,101162.39
2018-05-15T02:16:45.743Z,101155.02
2018-05-15T02:19:13.016Z,101157.31
2018-05-15T02:21:41.361Z,101157.36
2018-05-15T02:24:08.862Z,101150.67
2018-05-15T02:26:36.377Z,101152.21
2018-05-15T02:29:03.005Z,101150.53
2018-05-15T02:31:29.766Z,101151.67
2018-05-15T02:33:57.550Z,101158.81
2018-05-15T02:36:24.248Z,101156.38
2018-05-15T02:38:50.928Z,101154.41
2018-05-15T02:41:17.621Z,101159.33
2018-05-15T02:43:44.457Z,101159.25
2018-05-15T02:46:11.841Z,101157.98
2018-05-15T02:48:39.267Z,101162.75
2018-05-15T02:51:06.625Z,101162.86
2018-05-15T02:53:34.429Z,101170.11
2018-05-15T02:56:01.829Z,101168.50
2018-05-15T02:58:29.373Z,101162.48
2018-05-15T03:00:56.027Z,101165.59
2018-05-15T03:03:23.436Z,101161.64
2018-05-15T03:05:50.104Z,101159.92
2018-05-15T03:08:17.522Z,101169.35
2018-05-15T03:10:44.171Z,101167.08
2018-05-15T03:13:11.071Z,101171.29
2018-05-15T03:15:38.507Z,101170.91
2018-05-15T03:18:05.205Z,101168.20
2018-05-15T03:20:31.854Z,101173.53
2018-05-15T03:22:58.604Z,101174.95
2018-05-15T03:25:25.251Z,101178.76
2018-05-15T03:27:52.112Z,101180.04
2018-05-15T03:30:18.832Z,101180.04
2018-05-15T03:32:45.549Z,101180.05
2018-05-15T03:35:13.041Z,101181.30
2018-05-15T03:37:39.732Z,101188.11
2018-05-15T03:40:07.201Z,101187.95
2018-05-15T03:42:33.940Z,101196.91
2018-05-15T03:45:00.615Z,101193.73
2018-05-15T03:47:27.232Z,101200.33
2018-05-15T03:49:53.957Z,101199.22
2018-05-15T03:52:20.639Z,101201.67
2018-05-15T03:54:47.605Z,101203.66
2018-05-15T03:57:16.140Z,101210.63
2018-05-15T03:59:43.000Z,101202.69
2018-05-15T04:02:28.060Z,101203.55
2018-05-15T04:05:13.154Z,101208.00
2018-05-15T04:10:46.542Z,101212.86
2018-05-15T04:13:13.171Z,101207.64
2018-05-15T04:15:40.914Z,101213.82
2018-05-15T04:18:08.478Z,101212.63
2018-05-15T04:20:36.180Z,101216.27
2018-05-15T04:23:02.794Z,101207.36
2018-05-15T04:25:29.453Z,101206.34
2018-05-15T04:27:56.101Z,101211.66
2018-05-15T04:30:22.880Z,101209.91
2018-05-15T04:32:49.631Z,101214.09
2018-05-15T04:35:18.150Z,101216.80
2018-05-15T04:37:45.509Z,101213.24
2018-05-15T04:40:12.181Z,101217.67
2018-05-15T04:42:38.891Z,101216.79
2018-05-15T04:45:05.729Z,101217.89
2018-05-15T04:47:33.329Z,101220.51
2018-05-15T04:50:00.016Z,101221.79
2018-05-15T04:52:26.784Z,101223.37
2018-05-15T04:54:54.164Z,101225.27
2018-05-15T04:57:21.688Z,101232.80
2018-05-15T04:59:48.579Z,101231.11
2018-05-15T05:02:16.103Z,101233.75
2018-05-15T05:04:42.886Z,101228.51
2018-05-15T05:07:10.293Z,101233.27
2018-05-15T05:09:37.644Z,101239.84
2018-05-15T05:12:04.310Z,101238.89
2018-05-15T05:14:32.185Z,101251.78
2018-05-15T05:17:00.060Z,101253.91
2018-05-15T05:19:27.582Z,101254.77
2018-05-15T05:21:55.344Z,101260.48
2018-05-15T05:24:22.004Z,101254.98
2018-05-15T05:26:48.881Z,101264.64
2018-05-15T05:29:17.231Z,101265.45
2018-05-15T05:31:44.774Z,101260.03
2018-05-15T05:34:12.189Z,101270.75
2018-05-15T05:36:38.862Z,101271.97
2018-05-15T05:39:05.604Z,101276.17
2018-05-15T05:41:32.325Z,101278.94
2018-05-15T05:43:59.069Z,101279.74
2018-05-15T05:46:25.841Z,101284.21
2018-05-15T05:48:53.475Z,101297.94
2018-05-15T05:51:21.000Z,101292.02
2018-05-15T05:53:48.247Z,101296.40
2018-05-15T05:56:15.946Z,101298.63
2018-05-15T05:58:43.492Z,101290.09
2018-05-15T06:01:10.361Z,101296.95
2018-05-15T06:03:36.999Z,101299.84
2018-05-15T06:06:03.653Z,101289.45
2018-05-15T06:08:30.380Z,101294.17
2018-05-15T06:10:57.019Z,101300.49
2018-05-15T06:13:23.689Z,101294.14
2018-05-15T06:15:50.427Z,101300.83
2018-05-15T06:18:17.081Z,101306.16
2018-05-15T06:20:45.593Z,101301.30
2018-05-15T06:23:13.064Z,101306.98
2018-05-15T06:25:39.672Z,101311.56
2018-05-15T06:28:07.089Z,101310.41
2018-05-15T06:30:33.963Z,101315.30
2018-05-15T06:33:01.375Z,101314.00
2018-05-15T06:35:28.147Z,101313.98
2018-05-15T06:37:54.829Z,101312.25
2018-05-15T06:40:21.493Z,101308.00
2018-05-15T06:42:48.199Z,101316.77
2018-05-15T06:45:16.424Z,101310.48
2018-05-15T06:47:43.043Z,101317.42
2018-05-15T06:50:09.702Z,101314.02
2018-05-15T06:52:36.926Z,101312.77
2018-05-15T06:55:03.540Z,101312.10
2018-05-15T06:57:30.385Z,101317.83
2018-05-15T06:59:57.073Z,101311.50
2018-05-15T07:02:24.759Z,101324.83
2018-05-15T07:04:52.508Z,101325.96
2018-05-15T07:07:20.264Z,101327.95
2018-05-15T07:09:47.076Z,101327.95
2018-05-15T07:12:13.748Z,101325.08
2018-05-15T07:14:40.446Z,101328.74
2018-05-15T07:17:07.373Z,101328.27
2018-05-15T07:19:34.918Z,101330.09
2018-05-15T07:22:02.473Z,101332.46
2018-05-15T07:24:30.645Z,101330.06
2018-05-15T07:26:58.069Z,101340.16
2018-05-15T07:29:24.856Z,101334.56
2018-05-15T07:31:52.400Z,101334.89
2018-05-15T07:34:19.301Z,101337.23
2018-05-15T07:36:45.930Z,101338.40
2018-05-15T07:39:13.549Z,101337.12
2018-05-15T07:41:40.320Z,101333.00
2018-05-15T07:44:07.840Z,101346.18
2018-05-15T07:46:34.709Z,101343.59
2018-05-15T07:49:02.196Z,101340.30
2018-05-15T07:51:28.830Z,101341.75
2018-05-15T07:53:55.696Z,101342.06
2018-05-15T07:56:22.303Z,101333.34
2018-05-15T07:58:49.060Z,101332.22
2018-05-15T08:01:15.736Z,101336.84
2018-05-15T08:03:42.600Z,101334.27
2018-05-15T08:06:10.175Z,101333.09
2018-05-15T08:08:37.546Z,101335.45
2018-05-15T08:11:04.219Z,101337.40
2018-05-15T08:13:31.108Z,101342.53
2018-05-15T08:15:58.501Z,101339.69
2018-05-15T08:18:25.224Z,101343.39
2018-05-15T08:20:51.914Z,101339.72
2018-05-15T08:23:18.626Z,101332.44
2018-05-15T08:25:45.264Z,101336.59
2018-05-15T08:28:12.006Z,101342.75
2018-05-15T08:30:38.651Z,101334.16
2018-05-15T08:33:05.376Z,101338.20
2018-05-15T08:35:32.108Z,101343.48
2018-05-15T08:37:58.727Z,101340.91
2018-05-15T08:40:26.219Z,101338.91
2018-05-15T08:42:52.859Z,101340.84
2018-05-15T08:45:19.589Z,101348.28
2018-05-15T08:47:46.151Z,101335.77
2018-05-15T08:50:12.821Z,101330.32
2018-05-15T08:52:40.915Z,101328.56
2018-05-15T08:55:07.728Z,101328.77
2018-05-15T08:57:34.539Z,101322.50
2018-05-15T09:00:01.217Z,101331.13
2018-05-15T09:02:28.720Z,101318.78
2018-05-15T09:04:55.986Z,101322.20
2018-05-15T09:07:22.840Z,101321.86
2018-05-15T09:09:49.959Z,101325.15
2018-05-15T09:12:16.623Z,101327.29
2018-05-15T09:14:43.392Z,101321.58
2018-05-15T09:17:10.908Z,101313.59
2018-05-15T09:19:37.538Z,101319.41
2018-05-15T09:22:05.088Z,101323.65
2018-05-15T09:24:32.262Z,101321.42
2018-05-15T09:26:58.930Z,101319.48
2018-05-15T09:29:25.697Z,101317.68
2018-05-15T09:31:52.474Z,101326.36
2018-05-15T09:34:20.046Z,101330.52
2018-05-15T09:36:47.018Z,101319.13
2018-05-15T09:39:13.648Z,101309.03
2018-05-15T09:41:40.401Z,101322.06
2018-05-15T09:44:07.106Z,101318.31
2018-05-15T09:46:33.773Z,101315.97
2018-05-15T09:49:00.426Z,101321.50
2018-05-15T09:51:27.176Z,101319.97
2018-05-15T09:53:54.591Z,101315.32
2018-05-15T09:56:21.497Z,101319.00
2018-05-15T09:58:48.158Z,101307.30
2018-05-15T10:01:14.862Z,101315.72
2018-05-15T10:03:42.330Z,101309.89
2018-05-15T10:06:09.948Z,101309.72
2018-05-15T10:08:36.624Z,101299.92
2018-05-15T10:11:04.004Z,101300.59
2018-05-15T10:13:30.683Z,101311.92
2018-05-15T10:15:57.478Z,101310.69
2018-05-15T10:18:24.834Z,101298.59
2018-05-15T10:20:51.493Z,101298.92
2018-05-15T10:23:18.290Z,101303.73
2018-05-15T10:25:45.853Z,101298.89
2018-05-15T10:28:13.426Z,101296.25
2018-05-15T10:30:40.897Z,101295.41
2018-05-15T10:33:07.714Z,101294.22
2018-05-15T10:35:35.341Z,101287.09
2018-05-15T10:38:02.238Z,101297.88
2018-05-15T10:40:28.880Z,101295.72
2018-05-15T10:42:55.661Z,101297.12
2018-05-15T10:45:22.315Z,101301.08
2018-05-15T10:47:49.837Z,101299.28
2018-05-15T10:50:16.639Z,101296.05
2018-05-15T10:52:44.074Z,101294.76
2018-05-15T10:55:10.769Z,101289.17
2018-05-15T10:57:37.428Z,101293.89
2018-05-15T11:00:04.121Z,101296.42
2018-05-15T11:02:31.595Z,101291.50
2018-05-15T11:04:58.276Z,101289.94
2018-05-15T11:07:24.955Z,101284.16
2018-05-15T11:09:52.357Z,101283.81
2018-05-15T11:12:19.028Z,101285.80
2018-05-15T11:14:46.638Z,101284.66
2018-05-15T11:17:13.248Z,101286.52
2018-05-15T11:19:58.496Z,101288.17
2018-05-15T11:22:43.613Z,101289.69
2018-05-15T11:25:10.267Z,101286.47
2018-05-15T11:27:36.985Z,101292.88
2018-05-15T11:30:03.745Z,101297.06
2018-05-15T11:32:30.460Z,101294.64
2018-05-15T11:34:57.901Z,101281.49
2018-05-15T11:37:25.293Z,101292.91
2018-05-15T11:39:52.049Z,101290.59
2018-05-15T11:42:18.865Z,101287.64
2018-05-15T11:44:46.241Z,101287.30
2018-05-15T11:47:13.073Z,101298.48
2018-05-15T11:49:40.776Z,101287.53
2018-05-15T11:52:07.400Z,101277.95
2018-05-15T11:54:33.198Z,101273.83
2018-05-15T11:57:01.303Z,101289.92
2018-05-15T11:59:27.974Z,101284.30
2018-05-15T12:01:54.740Z,101284.67
2018-05-15T12:04:21.500Z,101288.17
2018-05-15T12:06:48.127Z,101277.31
2018-05-15T12:09:14.986Z,101279.53
2018-05-15T12:11:41.614Z,101285.73
2018-05-15T12:14:08.341Z,101292.00
2018-05-15T12:16:35.004Z,101287.81
2018-05-15T12:19:01.648Z,101286.19
2018-05-15T12:21:28.349Z,101284.02
2018-05-15T12:23:55.810Z,101278.11
2018-05-15T12:26:23.370Z,101292.62
2018-05-15T12:28:50.857Z,101285.15
2018-05-15T12:31:17.511Z,101292.89
2018-05-15T12:33:44.256Z,101284.32
2018-05-15T12:36:10.960Z,101286.28
2018-05-15T12:38:37.760Z,101283.92
2018-05-15T12:41:05.180Z,101282.52
2018-05-15T12:43:32.636Z,101282.50
2018-05-15T12:45:59.446Z,101285.45
2018-05-15T12:48:27.086Z,101274.63
2018-05-15T12:50:53.839Z,101267.69
2018-05-15T12:53:21.246Z,101272.60
2018-05-15T12:55:47.931Z,101266.24
2018-05-15T12:58:15.296Z,101267.80
2018-05-15T13:00:42.684Z,101269.16
2018-05-15T13:03:09.334Z,101258.28
2018-05-15T13:05:35.985Z,101258.95
2018-05-15T13:08:02.720Z,101255.02
2018-05-15T13:10:29.374Z,101263.47
2018-05-15T13:12:56.305Z,101261.21
2018-05-15T13:15:23.809Z,101239.78
2018-05-15T13:17:51.305Z,101259.31
2018-05-15T13:20:18.066Z,101262.08
2018-05-15T13:22:44.772Z,101247.90
2018-05-15T13:25:11.425Z,101257.89
2018-05-15T13:27:38.077Z,101240.76
2018-05-15T13:30:04.787Z,101243.07
2018-05-15T13:32:31.450Z,101246.70
2018-05-15T13:34:58.242Z,101239.39
2018-05-15T13:37:25.847Z,101240.23
2018-05-15T13:39:52.482Z,101244.80
2018-05-15T13:42:19.170Z,101245.42
2018-05-15T13:44:45.884Z,101236.45
2018-05-15T13:47:12.639Z,101242.22
2018-05-15T13:49:39.454Z,101229.64
2018-05-15T13:52:06.195Z,101224.33
2018-05-15T13:54:32.854Z,101220.56
2018-05-15T13:56:59.495Z,101225.84
2018-05-15T13:59:26.179Z,101227.49
2018-05-15T14:01:52.891Z,101225.22
2018-05-15T14:04:19.583Z,101215.31
2018-05-15T14:06:46.377Z,101220.26
2018-05-15T14:09:13.040Z,101214.52
2018-05-15T14:11:39.871Z,101211.91
2018-05-15T14:14:07.445Z,101208.74
2018-05-15T14:16:34.194Z,101202.39
2018-05-15T14:19:01.744Z,101201.27
2018-05-15T14:21:28.399Z,101204.00
2018-05-15T14:23:55.115Z,101202.24
2018-05-15T14:26:22.652Z,101196.80
2018-05-15T14:28:49.343Z,101194.22
2018-05-15T14:31:16.915Z,101192.79
2018-05-15T14:33:43.592Z,101190.38
2018-05-15T14:36:10.310Z,101192.30
2018-05-15T14:38:37.197Z,101186.80
2018-05-15T14:41:04.664Z,101186.28
2018-05-15T14:43:32.058Z,101188.25
2018-05-15T14:45:58.725Z,101186.36
2018-05-15T14:48:25.589Z,101187.31
2018-05-15T14:54:11.574Z,101178.80
2018-05-15T14:56:38.981Z,101178.52
2018-05-15T14:59:05.801Z,101181.98
2018-05-15T15:01:33.374Z,101179.81
2018-05-15T15:04:00.950Z,101177.52
2018-05-15T15:06:29.493Z,101175.89
2018-05-15T15:08:56.111Z,101173.63
2018-05-15T15:11:22.990Z,101171.57
2018-05-15T15:13:50.545Z,101172.67
2018-05-15T15:16:18.655Z,101179.42
2018-05-15T15:18:45.447Z,101179.04
2018-05-15T15:21:12.133Z,101170.31
2018-05-15T15:23:38.901Z,101167.78
2018-05-15T15:26:05.575Z,101161.22
2018-05-15T15:28:32.237Z,101153.69
2018-05-15T15:30:58.961Z,101151.31
2018-05-15T15:33:26.487Z,101153.88
2018-05-15T15:35:53.120Z,101148.80
2018-05-15T15:38:20.760Z,101148.20
2018-05-15T15:40:47.514Z,101144.12
2018-05-15T15:43:14.359Z,101145.46
2018-05-15T15:45:41.196Z,101138.25
2018-05-15T15:48:07.865Z,101156.48
2018-05-15T15:50:34.695Z,101149.59
2018-05-15T15:53:01.334Z,101140.80
2018-05-15T15:55:28.092Z,101141.17
2018-05-15T15:57:55.026Z,101140.50
2018-05-15T16:00:21.825Z,101141.16
2018-05-15T16:02:48.652Z,101140.88
2018-05-15T16:05:16.258Z,101139.73
2018-05-15T16:07:43.087Z,101137.45
2018-05-15T16:10:09.790Z,101137.76
2018-05-15T16:12:36.389Z,101135.25
2018-05-15T16:15:03.100Z,101130.32
2018-05-15T16:17:29.942Z,101134.54
2018-05-15T16:19:56.597Z,101136.13
2018-05-15T16:22:23.288Z,101135.95
2018-05-15T16:24:50.894Z,101145.42
2018-05-15T16:27:17.865Z,101128.52
2018-05-15T16:29:45.198Z,101138.51
2018-05-15T16:32:11.852Z,101134.59
2018-05-15T16:34:39.561Z,101135.44
2018-05-15T16:37:06.313Z,101140.69
2018-05-15T16:39:33.283Z,101137.72
2018-05-15T16:42:01.819Z,101135.17
2018-05-15T16:44:28.521Z,101147.37
2018-05-15T16:46:55.511Z,101136.41
2018-05-15T16:49:22.120Z,101137.77
2018-05-15T16:51:49.524Z,101134.96
2018-05-15T16:54:16.482Z,101130.86
2018-05-15T16:56:43.664Z,101130.16
2018-05-15T16:59:11.269Z,101133.14
2018-05-15T17:01:38.734Z,101133.02
2018-05-15T17:04:05.410Z,101134.11
2018-05-15T17:06:32.073Z,101134.66
2018-05-15T17:08:59.502Z,101133.16
2018-05-15T17:11:26.230Z,101134.73
2018-05-15T17:13:53.460Z,101133.83
2018-05-15T17:16:20.168Z,101140.59
2018-05-15T17:18:47.065Z,101136.97
2018-05-15T17:21:13.911Z,101132.44
2018-05-15T17:23:40.621Z,101139.76
2018-05-15T17:26:08.628Z,101136.24
2018-05-15T17:28:35.934Z,101140.69
2018-05-15T17:31:02.657Z,101136.86
2018-05-15T17:33:30.245Z,101134.96
2018-05-15T17:35:57.806Z,101131.95
2018-05-15T17:38:25.277Z,101136.98
2018-05-15T17:40:52.699Z,101132.98
2018-05-15T17:43:19.354Z,101128.95
2018-05-15T17:45:46.830Z,101132.70
2018-05-15T17:48:13.494Z,101129.77
2018-05-15T17:50:41.022Z,101132.97
2018-05-15T17:53:07.781Z,101130.66
2018-05-15T17:55:34.458Z,101132.64
2018-05-15T17:58:01.099Z,101129.72
2018-05-15T18:00:27.747Z,101126.71
2018-05-15T18:02:55.346Z,101128.92
2018-05-15T18:05:22.186Z,101135.02
2018-05-15T18:07:48.837Z,101132.04
2018-05-15T18:10:16.091Z,101123.11
2018-05-15T18:12:42.761Z,101126.23
2018-05-15T18:15:09.411Z,101124.53
2018-05-15T18:17:38.492Z,101126.23
2018-05-15T18:20:05.300Z,101125.23
2018-05-15T18:22:31.990Z,101137.27
2018-05-15T18:24:59.765Z,101136.72
2018-05-15T18:27:26.718Z,101134.92
2018-05-15T18:29:53.424Z,101136.88
2018-05-15T18:32:20.109Z,101137.77
2018-05-15T18:34:48.056Z,101141.03
2018-05-15T18:37:15.633Z,101142.20
2018-05-15T18:39:43.068Z,101138.19
2018-05-15T18:42:09.755Z,101139.98
2018-05-15T18:44:36.478Z,101140.11
2018-05-15T18:47:04.098Z,101139.19
2018-05-15T18:49:30.913Z,101140.48
2018-05-15T18:51:57.765Z,101137.56
2018-05-15T18:54:24.574Z,101145.72
2018-05-15T18:56:51.426Z,101147.44
2018-05-15T18:59:18.129Z,101145.63
2018-05-15T19:01:45.015Z,101146.81
2018-05-15T19:04:11.903Z,101147.80
2018-05-15T19:06:39.180Z,101153.36
2018-05-15T19:09:05.831Z,101144.14
2018-05-15T19:11:33.284Z,101154.22
2018-05-15T19:14:00.999Z,101160.42
2018-05-15T19:16:27.630Z,101161.38
2018-05-15T19:18:54.413Z,101158.08
2018-05-15T19:21:21.274Z,101154.53
2018-05-15T19:23:48.872Z,101156.77
2018-05-15T19:26:15.514Z,101157.58
2018-05-15T19:28:42.187Z,101156.51
2018-05-15T19:31:15.119Z,101156.38
2018-05-15T19:33:41.745Z,101156.75
2018-05-15T19:36:09.447Z,101160.05
2018-05-15T19:38:36.171Z,101158.56
2018-05-15T19:41:05.689Z,101157.12
2018-05-15T19:43:33.260Z,101159.05
2018-05-15T19:45:59.934Z,101165.11
2018-05-15T19:48:26.697Z,101164.12
2018-05-15T19:50:53.445Z,101166.00
2018-05-15T19:53:20.185Z,101165.08
2018-05-15T19:55:46.965Z,101168.39
2018-05-15T19:58:13.882Z,101166.19
2018-05-15T20:00:40.540Z,101165.86
2018-05-15T20:03:08.315Z,101166.59
2018-05-15T20:05:34.990Z,101172.23
2018-05-15T20:08:02.458Z,101169.20
2018-05-15T20:10:30.777Z,101166.80
2018-05-15T20:12:57.483Z,101173.91
2018-05-15T20:15:25.033Z,101164.92
2018-05-15T20:17:52.467Z,101167.03
2018-05-15T20:20:19.889Z,101166.52
2018-05-15T20:22:46.582Z,101165.87
2018-05-15T20:25:13.993Z,101166.50
2018-05-15T20:27:40.649Z,101167.17
2018-05-15T20:30:08.152Z,101172.72
2018-05-15T20:32:34.771Z,101168.97
2018-05-15T20:35:02.341Z,101166.22
2018-05-15T20:37:29.731Z,101168.63
2018-05-15T20:39:56.553Z,101168.05
2018-05-15T20:42:23.220Z,101174.40
2018-05-15T20:44:49.908Z,101170.94
2018-05-15T20:47:17.319Z,101168.06
2018-05-15T20:49:44.091Z,101164.05
2018-05-15T20:52:10.806Z,101174.57
2018-05-15T20:54:37.499Z,101177.98
2018-05-15T20:57:04.916Z,101177.73
2018-05-15T20:59:31.751Z,101175.83
2018-05-15T21:01:58.435Z,101178.33
2018-05-15T21:04:25.803Z,101174.28
2018-05-15T21:06:52.563Z,101171.97
2018-05-15T21:09:19.221Z,101169.61
2018-05-15T21:11:46.014Z,101167.95
2018-05-15T21:14:13.430Z,101171.22
2018-05-15T21:16:40.297Z,101171.17
2018-05-15T21:19:07.734Z,101171.38
2018-05-15T21:21:34.365Z,101165.75
2018-05-15T21:24:01.336Z,101165.36
2018-05-15T21:26:28.104Z,101163.60
2018-05-15T21:28:55.684Z,101160.85
2018-05-15T21:31:22.516Z,101162.06
2018-05-15T21:33:49.209Z,101165.52
2018-05-15T21:36:16.121Z,101162.16
2018-05-15T21:38:42.824Z,101173.05
2018-05-15T21:41:10.215Z,101169.63
2018-05-15T21:43:37.242Z,101164.34
2018-05-15T21:46:03.869Z,101163.23
2018-05-15T21:48:34.318Z,101162.28
2018-05-15T21:51:01.921Z,101164.83
2018-05-15T21:53:29.096Z,101164.98
2018-05-15T21:55:56.511Z,101164.69
2018-05-15T21:58:24.137Z,101158.30
2018-05-15T22:00:50.965Z,101159.81
2018-05-15T22:03:18.959Z,101150.97
2018-05-15T22:05:45.774Z,101156.67
2018-05-15T22:08:14.204Z,101156.02
2018-05-15T22:10:41.845Z,101157.47
2018-05-15T22:13:26.843Z,101154.71
2018-05-15T22:16:12.034Z,101156.30
2018-05-15T22:18:57.116Z,101158.11
2018-05-15T22:21:42.074Z,101153.20
2018-05-15T22:24:09.972Z,101151.73
2018-05-15T22:26:38.381Z,101151.09
2018-05-15T22:29:05.922Z,101153.27
2018-05-15T22:31:32.750Z,101145.99
2018-05-15T22:34:00.182Z,101147.13
2018-05-15T22:36:26.872Z,101149.64
2018-05-15T22:38:53.543Z,101145.55
2018-05-15T22:41:21.107Z,101139.30
2018-05-15T22:43:47.770Z,101139.81
2018-05-15T22:46:14.429Z,101138.83
2018-05-15T22:48:41.817Z,101135.73
2018-05-15T22:51:08.938Z,101133.09
2018-05-15T22:53:35.675Z,101134.51
2018-05-15T22:56:03.885Z,101124.56
2018-05-15T22:58:30.700Z,101137.47
2018-05-15T23:00:57.383Z,101133.81
2018-05-15T23:03:24.005Z,101134.98
2018-05-15T23:05:50.640Z,101133.00
2018-05-15T23:08:17.348Z,101128.33
2018-05-15T23:10:44.752Z,101138.97
2018-05-15T23:13:11.584Z,101134.83
2018-05-15T23:15:38.239Z,101131.66
2018-05-15T23:18:04.961Z,101132.63
2018-05-15T23:20:31.595Z,101129.06
2018-05-15T23:22:58.385Z,101130.36
2018-05-15T23:25:25.004Z,101126.36
2018-05-15T23:27:52.496Z,101126.56
2018-05-15T23:30:20.043Z,101119.33
2018-05-15T23:32:47.613Z,101126.22
2018-05-15T23:35:15.048Z,101124.73
2018-05-15T23:37:41.662Z,101120.96
2018-05-15T23:40:09.032Z,101124.68
2018-05-15T23:42:36.287Z,101126.98
2018-05-15T23:45:02.902Z,101127.08
2018-05-15T23:47:30.332Z,101133.62
2018-05-15T23:49:57.090Z,101132.03
2018-05-15T23:52:24.554Z,101127.02
2018-05-15T23:54:51.207Z,101131.11
2018-05-15T23:57:17.880Z,101129.11
2018-05-15T23:59:44.589Z,101133.69
